Thomas D. Witte — WDD8916 — position and weather

sailwx.info

Track history (hours):
 
Tides and Currents Weather Stations Pressure Air Temp Water Temp Dewpoint Dewpoint Depression Visibility Wind Speed Wind Dir Waves Ship Positions

Thomas D. Witte

Owner: Donjon Marine Co., Inc., Hillside, NJ. More information available from US FCC via Universal Licensing System and Coast Guard Vessel Documentation Center.

Last reported at 2018-Jul-22 13:52 UTC. Time now 2018-Jul-22 14:05 UTC.
Position N 40°44' W 073°57'.

Length 19 m.

Type: Other ship. MMSI: 367304530.

Date/timePositionNaut miles runAvg speedWind from/ knotsBaromVisibWave heightAir tempDewpointWater temp
2018-Jul-22 13:52N 40°44' W 073°57'1 3.0
2018-Jul-22 13:25N 40°43' W 073°58'2 3.9
2018-Jul-22 13:00N 40°42' W 073°60'3 5.2
2018-Jul-22 12:30N 40°40' W 074°02'2 3.5
2018-Jul-22 12:00N 40°41' W 074°04'0 0.0
2018-Jul-22 11:30N 40°41' W 074°04'0 0.6
2018-Jul-22 11:00N 40°41' W 074°05'0 0.0
2018-Jul-22 10:30N 40°41' W 074°05'0 0.0
2018-Jul-22 10:00N 40°41' W 074°05'0 0.0
2018-Jul-22 09:30N 40°41' W 074°05'0 0.3
2018-Jul-22 09:00N 40°41' W 074°04'3 6.2
2018-Jul-22 08:30N 40°39' W 074°07'3 5.2
2018-Jul-22 08:00N 40°41' W 074°08'1 2.3
2018-Jul-22 07:30N 40°42' W 074°09'0 0.0
2018-Jul-22 06:53N 40°42' W 074°09'0 0.0
2018-Jul-22 06:30N 40°42' W 074°09'0 0.0
2018-Jul-22 05:53N 40°42' W 074°09'0 0.0
2018-Jul-22 05:27N 40°42' W 074°09'0 0.0
2018-Jul-21 21:55N 40°42' W 074°09'1 2.8
2018-Jul-21 21:30N 40°41' W 074°08'1 1.2
2018-Jul-21 20:59N 40°41' W 074°08'0 0.0
2018-Jul-21 20:30N 40°41' W 074°08'0 0.0
2018-Jul-21 20:00N 40°41' W 074°08'0 0.0
2018-Jul-21 19:30N 40°41' W 074°08'0 0.0
2018-Jul-21 18:59N 40°41' W 074°08'1 2.9
2018-Jul-21 18:29N 40°42' W 074°09'0 0.8
2018-Jul-21 17:57N 40°42' W 074°08'1 2.4
2018-Jul-21 17:30N 40°41' W 074°08'0 0.1
2018-Jul-21 17:00N 40°41' W 074°08'0 0.0
2018-Jul-21 16:30N 40°41' W 074°08'1 1.8
2018-Jul-21 15:58N 40°42' W 074°08'1 1.7
2018-Jul-21 15:22N 40°41' W 074°08'0 0.0
2018-Jul-21 14:59N 40°41' W 074°08'1 1.9
2018-Jul-21 14:30N 40°40' W 074°08'0 0.7
2018-Jul-21 14:00N 40°40' W 074°08'2 3.4
2018-Jul-21 13:28N 40°42' W 074°09'2 3.0
2018-Jul-21 12:58N 40°41' W 074°08'0 0.0
2018-Jul-21 12:30N 40°41' W 074°08'0 0.0
2018-Jul-21 12:00N 40°41' W 074°08'0 0.0
2018-Jul-21 11:30N 40°41' W 074°08'0 0.0
2018-Jul-21 11:00N 40°41' W 074°08'0 0.2
2018-Jul-21 10:30N 40°41' W 074°08'1 1.7
2018-Jul-21 09:59N 40°40' W 074°08'1 2.4
2018-Jul-21 09:30N 40°41' W 074°09'0 0.0
2018-Jul-21 09:00N 40°41' W 074°09'0 0.1
2018-Jul-21 08:30N 40°41' W 074°09'0 0.0
2018-Jul-21 08:00N 40°41' W 074°09'0 0.0
2018-Jul-21 07:30N 40°41' W 074°09'0 0.0
2018-Jul-21 06:59N 40°41' W 074°09'0 0.0
2018-Jul-21 06:30N 40°41' W 074°09'0 0.2
2018-Jul-21 06:00N 40°41' W 074°09'0 0.0
2018-Jul-21 05:30N 40°41' W 074°09'0 0.0
2018-Jul-21 05:00N 40°41' W 074°09'0 0.0
2018-Jul-21 04:30N 40°41' W 074°09'1 1.4
2018-Jul-21 04:00N 40°40' W 074°08'4 7.0
2018-Jul-21 03:30N 40°43' W 074°06'2 3.2
2018-Jul-21 03:00N 40°45' W 074°05'0 0.4
2018-Jul-21 02:29N 40°45' W 074°05'0 0.3
2018-Jul-21 02:00N 40°45' W 074°05'2 4.3
2018-Jul-21 01:30N 40°43' W 074°06'2 4.0
2018-Jul-21 01:00N 40°41' W 074°08'1 0.6
2018-Jul-20 23:37N 40°42' W 074°09'0 0.0
2018-Jul-20 23:30N 40°42' W 074°09'0 0.0
2018-Jul-20 22:59N 40°42' W 074°09'0 0.0
2018-Jul-20 22:25N 40°42' W 074°09'1 2.8
2018-Jul-20 22:00N 40°41' W 074°08'1 1.9
2018-Jul-20 21:29N 40°42' W 074°09'0 0.8
2018-Jul-20 20:59N 40°42' W 074°08'1 2.5
2018-Jul-20 20:30N 40°41' W 074°08'0 0.0
2018-Jul-20 19:59N 40°41' W 074°08'0 0.0
2018-Jul-20 19:30N 40°41' W 074°08'0 0.0
2018-Jul-20 19:00N 40°41' W 074°08'0 0.0
2018-Jul-20 18:30N 40°41' W 074°08'0 0.1
2018-Jul-20 17:59N 40°41' W 074°08'0 0.1
2018-Jul-20 17:30N 40°41' W 074°08'0 0.1
2018-Jul-20 17:00N 40°41' W 074°08'1 1.2
2018-Jul-20 16:22N 40°41' W 074°08'0 0.1
2018-Jul-20 16:00N 40°41' W 074°08'1 1.6
2018-Jul-20 15:29N 40°42' W 074°09'0 0.0
2018-Jul-20 14:58N 40°42' W 074°09'0 0.0
2018-Jul-20 14:29N 40°42' W 074°09'0 0.3
2018-Jul-20 14:00N 40°42' W 074°09'0 0.3
2018-Jul-20 13:30N 40°42' W 074°09'1 2.2
2018-Jul-20 13:00N 40°41' W 074°08'0 1.0
2018-Jul-20 12:30N 40°41' W 074°08'0 0.0
2018-Jul-20 12:00N 40°41' W 074°08'0 0.0
2018-Jul-20 11:29N 40°41' W 074°08'0 0.0
2018-Jul-20 11:00N 40°41' W 074°08'0 0.1
2018-Jul-20 10:30N 40°41' W 074°08'1 1.8
2018-Jul-20 10:01N 40°41' W 074°08'1 1.2
2018-Jul-20 09:30N 40°41' W 074°09'0 0.2
2018-Jul-20 09:01N 40°41' W 074°09'0 0.2
2018-Jul-20 08:31N 40°41' W 074°09'0 0.0
2018-Jul-20 08:00N 40°41' W 074°09'0 0.1
2018-Jul-20 07:30N 40°41' W 074°09'0 0.1
2018-Jul-20 07:00N 40°41' W 074°09'0 0.0
2018-Jul-20 06:30N 40°41' W 074°09'0 0.2
2018-Jul-20 06:00N 40°41' W 074°09'0 0.1
2018-Jul-20 05:30N 40°41' W 074°09'0 0.0
2018-Jul-20 05:00N 40°41' W 074°09'0 0.0
2018-Jul-20 04:30N 40°41' W 074°09'1 1.5
2018-Jul-20 04:01N 40°41' W 074°08'0 0.0
2018-Jul-20 03:30N 40°41' W 074°08'1 1.8
2018-Jul-20 03:00N 40°42' W 074°07'3 6.4
2018-Jul-20 02:30N 40°44' W 074°05'0 0.5
2018-Jul-20 01:56N 40°45' W 074°05'0 0.1
2018-Jul-20 01:30N 40°45' W 074°05'1 1.4
2018-Jul-20 00:59N 40°44' W 074°05'2 4.9
2018-Jul-20 00:30N 40°42' W 074°07'1 1.9
2018-Jul-19 23:46N 40°42' W 074°09'0 0.2
2018-Jul-19 22:11N 40°42' W 074°09'0 1.0
2018-Jul-19 22:00N 40°42' W 074°09'0 0.2
2018-Jul-19 21:29N 40°42' W 074°09'1 3.0
2018-Jul-19 21:00N 40°41' W 074°08'0 0.1
2018-Jul-19 20:30N 40°41' W 074°08'0 0.0
2018-Jul-19 20:00N 40°41' W 074°08'0 0.0
2018-Jul-19 19:30N 40°41' W 074°08'0 0.0
2018-Jul-19 19:00N 40°41' W 074°08'0 0.4
2018-Jul-19 18:30N 40°41' W 074°08'1 1.8
2018-Jul-19 17:50N 40°42' W 074°09'1 3.8
2018-Jul-19 17:30N 40°41' W 074°08'0 0.5
2018-Jul-19 17:00N 40°41' W 074°08'0 0.0
2018-Jul-19 16:29N 40°41' W 074°08'0 0.0
2018-Jul-19 16:00N 40°41' W 074°08'1 2.5
2018-Jul-19 15:25N 40°42' W 074°09'1 1.5
2018-Jul-19 14:59N 40°42' W 074°08'1 1.8
2018-Jul-19 14:30N 40°41' W 074°08'0 0.1
2018-Jul-19 13:30N 40°41' W 074°08'0 0.0
2018-Jul-19 13:00N 40°41' W 074°08'0 0.0
2018-Jul-19 12:30N 40°41' W 074°08'1 1.7
2018-Jul-19 12:00N 40°40' W 074°08'0 0.6
2018-Jul-19 11:30N 40°40' W 074°08'1 1.6
2018-Jul-19 11:00N 40°41' W 074°09'0 0.0
2018-Jul-19 10:30N 40°41' W 074°09'0 0.0
2018-Jul-19 10:00N 40°41' W 074°09'0 0.0
2018-Jul-19 09:30N 40°41' W 074°09'0 0.1
2018-Jul-19 09:00N 40°41' W 074°09'0 0.1
2018-Jul-19 08:30N 40°41' W 074°09'0 0.0
2018-Jul-19 08:00N 40°41' W 074°09'0 0.1
2018-Jul-19 07:30N 40°41' W 074°09'0 0.1
2018-Jul-19 07:00N 40°41' W 074°09'0 0.0
2018-Jul-19 06:30N 40°41' W 074°09'0 0.2
2018-Jul-19 06:00N 40°41' W 074°09'1 2.0
2018-Jul-19 05:30N 40°42' W 074°09'0 0.3
2018-Jul-19 05:00N 40°42' W 074°09'0 0.0
2018-Jul-19 04:30N 40°42' W 074°09'0 0.0
2018-Jul-19 04:00N 40°42' W 074°09'0 0.0
2018-Jul-19 03:30N 40°42' W 074°09'2 3.0
2018-Jul-19 03:00N 40°40' W 074°08'0 0.7
2018-Jul-19 02:30N 40°41' W 074°08'4 1.7
2018-Jul-19 00:13N 40°44' W 074°06'1 6.0
2018-Jul-19 00:00N 40°43' W 074°06'2 4.2
2018-Jul-18 23:30N 40°41' W 074°08'1 0.6
2018-Jul-18 22:10N 40°42' W 074°09'1 3.1
2018-Jul-18 21:59N 40°42' W 074°08'1 2.4
2018-Jul-18 21:30N 40°41' W 074°08'0 0.2
2018-Jul-18 21:00N 40°41' W 074°08'1 1.6
2018-Jul-18 20:30N 40°40' W 074°08'1 1.7
2018-Jul-18 20:00N 40°41' W 074°08'0 0.8
2018-Jul-18 19:30N 40°41' W 074°08'0 0.7
2018-Jul-18 18:58N 40°41' W 074°08'0 0.0
2018-Jul-18 18:30N 40°41' W 074°08'0 0.0
2018-Jul-18 18:00N 40°41' W 074°08'0 0.2
2018-Jul-18 17:30N 40°41' W 074°08'1 1.4
2018-Jul-18 17:00N 40°41' W 074°08'1 2.0
2018-Jul-18 16:26N 40°42' W 074°09'0 0.0
2018-Jul-18 16:00N 40°42' W 074°09'0 0.0
2018-Jul-18 15:30N 40°42' W 074°09'1 1.1
2018-Jul-18 14:49N 40°42' W 074°08'0 0.1
2018-Jul-18 14:27N 40°42' W 074°08'3 3.4
2018-Jul-18 13:30N 40°44' W 074°06'1 2.1
2018-Jul-18 13:00N 40°45' W 074°05'0 0.8
2018-Jul-18 12:30N 40°44' W 074°05'3 6.0
2018-Jul-18 12:00N 40°42' W 074°07'1 0.7
2018-Jul-18 10:30N 40°41' W 074°08'1 1.2
2018-Jul-18 10:00N 40°41' W 074°09'0 0.3
2018-Jul-18 09:29N 40°41' W 074°09'0 0.0
2018-Jul-18 09:00N 40°41' W 074°09'0 0.3
2018-Jul-18 08:31N 40°41' W 074°09'0 0.0
2018-Jul-18 08:00N 40°41' W 074°09'0 0.1
2018-Jul-18 07:30N 40°41' W 074°09'0 0.0
2018-Jul-18 07:00N 40°41' W 074°09'0 0.0
2018-Jul-18 06:29N 40°41' W 074°09'0 0.2
2018-Jul-18 06:00N 40°41' W 074°09'1 1.1
2018-Jul-18 04:51N 40°42' W 074°09'2 0.2
2018-Jul-17 19:29N 40°41' W 074°08'1 1.2
2018-Jul-17 18:59N 40°41' W 074°08'0 0.2
2018-Jul-17 18:30N 40°41' W 074°08'1 1.5
2018-Jul-17 17:49N 40°42' W 074°09'1 1.7
2018-Jul-17 17:20N 40°41' W 074°08'1 2.2
2018-Jul-17 16:59N 40°41' W 074°08'0 0.0
2018-Jul-17 15:51N 40°41' W 074°08'0 0.0
2018-Jul-17 15:16N 40°41' W 074°08'0 0.0
2018-Jul-17 14:51N 40°41' W 074°08'0 0.0
2018-Jul-17 14:26N 40°41' W 074°08'1 1.0
2018-Jul-17 13:54N 40°41' W 074°09'1 1.0
2018-Jul-17 13:21N 40°41' W 074°08'1 1.4
2018-Jul-17 12:53N 40°40' W 074°08'0 0.3
2018-Jul-17 12:12N 40°40' W 074°08'1 4.9
2018-Jul-17 12:00N 40°41' W 074°09'0 0.4
2018-Jul-17 11:27N 40°41' W 074°09'0 0.1
2018-Jul-17 10:50N 40°41' W 074°08'1 1.4
2018-Jul-17 10:27N 40°41' W 074°08'1 1.8
2018-Jul-17 10:00N 40°40' W 074°08'1 2.2
2018-Jul-17 09:30N 40°41' W 074°09'0 0.2
2018-Jul-17 09:00N 40°41' W 074°09'0 0.2
2018-Jul-17 08:30N 40°41' W 074°09'0 0.0
2018-Jul-17 08:00N 40°41' W 074°09'0 0.1
2018-Jul-17 07:30N 40°41' W 074°09'0 0.0
2018-Jul-17 07:00N 40°41' W 074°09'0 0.0
2018-Jul-17 06:30N 40°41' W 074°09'0 0.2
2018-Jul-17 05:58N 40°41' W 074°09'1 0.2
2018-Jul-17 02:32N 40°41' W 074°08'1 1.7
2018-Jul-17 02:14N 40°41' W 074°09'0 0.2
2018-Jul-17 02:00N 40°41' W 074°09'1 0.8
2018-Jul-17 01:07N 40°41' W 074°08'1 9.5
2018-Jul-17 00:59N 40°40' W 074°08'1 1.7
2018-Jul-17 00:30N 40°41' W 074°09'2 2.1
2018-Jul-16 23:30N 40°42' W 074°07'3 4.8
2018-Jul-16 22:56N 40°45' W 074°05'0 0.1
2018-Jul-16 22:01N 40°44' W 074°05'0 3.6
2018-Jul-16 22:00N 40°44' W 074°05'2 5.1
2018-Jul-16 21:30N 40°43' W 074°07'1 2.8
2018-Jul-16 20:59N 40°42' W 074°08'1 1.3
2018-Jul-16 20:29N 40°41' W 074°08'0 1.0
2018-Jul-16 20:00N 40°41' W 074°08'0 0.1
2018-Jul-16 19:30N 40°41' W 074°08'0 0.0
2018-Jul-16 19:00N 40°41' W 074°08'1 1.9
2018-Jul-16 18:30N 40°40' W 074°08'1 1.8
2018-Jul-16 17:58N 40°41' W 074°08'1 3.1
2018-Jul-16 17:30N 40°42' W 074°09'0 0.0
2018-Jul-16 17:00N 40°42' W 074°09'1 2.8
2018-Jul-16 16:30N 40°41' W 074°08'1 1.2
2018-Jul-16 16:00N 40°41' W 074°08'1 1.2
2018-Jul-16 15:29N 40°41' W 074°08'0 0.0
2018-Jul-16 14:56N 40°41' W 074°08'0 0.0
2018-Jul-16 14:30N 40°41' W 074°08'0 0.7
2018-Jul-16 14:00N 40°40' W 074°08'0 0.5
2018-Jul-16 13:30N 40°41' W 074°08'0 0.2
2018-Jul-16 13:00N 40°41' W 074°08'0 0.0
2018-Jul-16 12:29N 40°41' W 074°08'0 0.0
2018-Jul-16 12:00N 40°41' W 074°08'0 0.0
2018-Jul-16 11:30N 40°41' W 074°08'0 0.0
2018-Jul-16 10:59N 40°41' W 074°08'0 0.3
2018-Jul-16 10:31N 40°41' W 074°08'1 1.2
2018-Jul-16 09:57N 40°41' W 074°08'0 0.0
2018-Jul-16 09:29N 40°41' W 074°08'1 1.3
2018-Jul-16 08:45N 40°42' W 074°09'0 0.0
2018-Jul-16 03:07N 40°42' W 074°09'0 0.0
2018-Jul-16 02:45N 40°42' W 074°09'0 0.0
2018-Jul-16 02:26N 40°42' W 074°09'0 0.8
2018-Jul-16 02:00N 40°42' W 074°09'1 2.0
2018-Jul-16 01:20N 40°41' W 074°08'2 6.3
2018-Jul-16 00:59N 40°38' W 074°09'2 4.7
2018-Jul-16 00:30N 40°41' W 074°08'2 3.2
2018-Jul-16 00:00N 40°42' W 074°09'0 0.0
2018-Jul-15 23:30N 40°42' W 074°09'0 0.0
2018-Jul-15 23:00N 40°42' W 074°09'0 0.0
2018-Jul-15 22:30N 40°42' W 074°09'0 0.0
2018-Jul-15 22:00N 40°42' W 074°09'0 0.0
2018-Jul-15 21:25N 40°42' W 074°09'0 0.0
2018-Jul-15 20:32N 40°42' W 074°09'0 0.3
2018-Jul-15 20:30N 40°42' W 074°09'0 0.0
2018-Jul-15 19:57N 40°42' W 074°09'0 0.0
2018-Jul-15 19:09N 40°42' W 074°09'0 0.5
2018-Jul-15 19:00N 40°42' W 074°09'0 0.1
2018-Jul-15 18:30N 40°42' W 074°09'0 0.0
2018-Jul-15 18:00N 40°42' W 074°09'0 0.0
2018-Jul-15 17:30N 40°42' W 074°09'0 0.0
2018-Jul-15 16:29N 40°42' W 074°09'0 0.0
2018-Jul-15 15:55N 40°42' W 074°09'0 0.0
2018-Jul-15 15:27N 40°42' W 074°09'0 0.0
2018-Jul-15 14:58N 40°42' W 074°09'0 0.0
2018-Jul-15 14:30N 40°42' W 074°09'0 0.0
2018-Jul-15 14:00N 40°42' W 074°09'0 0.0
2018-Jul-15 13:30N 40°42' W 074°09'0 0.0
2018-Jul-15 12:49N 40°42' W 074°09'0 0.0
2018-Jul-15 12:30N 40°42' W 074°09'0 0.0
2018-Jul-15 12:00N 40°42' W 074°09'0 0.0
2018-Jul-15 11:29N 40°42' W 074°09'0 0.0
2018-Jul-15 11:00N 40°42' W 074°09'0 0.0
2018-Jul-15 10:27N 40°42' W 074°09'0 0.0
2018-Jul-15 10:00N 40°42' W 074°09'0 0.0
2018-Jul-15 09:29N 40°42' W 074°09'0 0.0
2018-Jul-15 09:00N 40°42' W 074°09'0 0.0
2018-Jul-15 08:30N 40°42' W 074°09'0 0.0
2018-Jul-15 08:00N 40°42' W 074°09'0 0.0
2018-Jul-15 07:30N 40°42' W 074°09'0 0.0
2018-Jul-15 07:00N 40°42' W 074°09'0 0.3
2018-Jul-15 06:30N 40°42' W 074°09'3 6.8
2018-Jul-15 06:00N 40°39' W 074°09'4 7.5
2018-Jul-15 05:30N 40°39' W 074°04'3 6.0
2018-Jul-15 05:00N 40°41' W 074°01'4 7.4
2018-Jul-15 04:30N 40°44' W 073°58'2 1.0
2018-Jul-15 02:41N 40°46' W 073°57'210.5
2018-Jul-15 02:31N 40°44' W 073°58'510.4
2018-Jul-15 02:00N 40°40' W 074°03'5 9.3
2018-Jul-15 01:30N 40°39' W 074°08'6 0.6
2018-Jul-14 14:02N 40°44' W 074°05'1 1.5
2018-Jul-14 13:31N 40°44' W 074°06'2 3.7
2018-Jul-14 13:01N 40°42' W 074°07'1 2.9
2018-Jul-14 12:30N 40°42' W 074°09'1 1.9
2018-Jul-14 12:00N 40°41' W 074°08'1 1.1
2018-Jul-14 11:31N 40°41' W 074°08'0 0.0
2018-Jul-14 11:00N 40°41' W 074°08'0 0.0
2018-Jul-14 10:30N 40°41' W 074°08'1 1.5
2018-Jul-14 09:59N 40°41' W 074°08'0 0.0
2018-Jul-14 09:31N 40°41' W 074°08'1 1.3
2018-Jul-14 09:00N 40°41' W 074°09'1 2.4
2018-Jul-14 08:29N 40°42' W 074°09'0 0.0
2018-Jul-14 07:58N 40°42' W 074°09'0 0.0
2018-Jul-14 07:30N 40°42' W 074°09'0 0.0
2018-Jul-14 07:00N 40°42' W 074°09'0 0.0
2018-Jul-14 06:30N 40°42' W 074°09'0 0.0
2018-Jul-14 06:00N 40°42' W 074°09'0 0.0
2018-Jul-14 05:30N 40°42' W 074°09'0 0.1
2018-Jul-14 05:00N 40°42' W 074°09'0 0.4
2018-Jul-14 04:29N 40°42' W 074°09'0 0.1
2018-Jul-14 02:47N 40°42' W 074°09'0 0.0
2018-Jul-14 02:11N 40°42' W 074°09'0 0.0
2018-Jul-14 01:57N 40°42' W 074°09'0 0.0
2018-Jul-14 01:27N 40°42' W 074°09'0 0.0
2018-Jul-14 01:00N 40°42' W 074°09'0 0.0
2018-Jul-14 00:29N 40°42' W 074°09'0 0.0
2018-Jul-13 23:42N 40°42' W 074°09'0 0.0
2018-Jul-13 23:30N 40°42' W 074°09'1 1.7
2018-Jul-13 23:00N 40°41' W 074°08'1 1.3
2018-Jul-13 22:30N 40°42' W 074°09'0 0.1
2018-Jul-13 21:54N 40°42' W 074°09'1 3.8
2018-Jul-13 21:30N 40°41' W 074°08'0 0.1
2018-Jul-13 21:00N 40°41' W 074°08'0 0.0
2018-Jul-13 20:31N 40°41' W 074°08'0 0.0
2018-Jul-13 20:00N 40°41' W 074°08'0 0.0
2018-Jul-13 19:30N 40°41' W 074°08'0 0.0
2018-Jul-13 19:00N 40°41' W 074°08'0 0.8
2018-Jul-13 18:30N 40°40' W 074°08'0 0.8
2018-Jul-13 18:00N 40°41' W 074°08'1 1.6
2018-Jul-13 17:30N 40°41' W 074°08'3 5.3
2018-Jul-13 16:58N 40°44' W 074°06'1 0.5
2018-Jul-13 14:05N 40°45' W 074°05'1 1.0
2018-Jul-13 13:05N 40°44' W 074°06'1 5.4
2018-Jul-13 12:59N 40°44' W 074°06'3 5.7
2018-Jul-13 12:29N 40°41' W 074°08'1 2.1
2018-Jul-13 11:59N 40°42' W 074°09'2 3.1
2018-Jul-13 11:30N 40°41' W 074°08'0 0.1
2018-Jul-13 11:01N 40°41' W 074°08'1 1.8
2018-Jul-13 10:30N 40°41' W 074°08'0 0.9
2018-Jul-13 09:59N 40°41' W 074°08'0 0.0
2018-Jul-13 09:30N 40°41' W 074°08'1 1.3
2018-Jul-13 09:01N 40°41' W 074°09'1 2.5
2018-Jul-13 08:30N 40°42' W 074°09'0 0.0
2018-Jul-13 07:59N 40°42' W 074°09'0 0.0
2018-Jul-13 07:30N 40°42' W 074°09'0 0.0
2018-Jul-13 07:00N 40°42' W 074°09'0 0.0
2018-Jul-13 06:30N 40°42' W 074°09'1 1.9
2018-Jul-13 06:00N 40°41' W 074°08'3 5.4
2018-Jul-13 05:30N 40°39' W 074°09'4 7.0
2018-Jul-13 05:00N 40°39' W 074°04'2 3.5
2018-Jul-13 04:31N 40°41' W 074°04'1 2.2
2018-Jul-13 04:00N 40°41' W 074°03'3 6.7
2018-Jul-13 03:30N 40°42' W 073°59'1 0.4
2018-Jul-13 00:53N 40°43' W 073°58'3 8.3
2018-Jul-13 00:31N 40°41' W 074°02'2 2.4
2018-Jul-12 23:42N 40°41' W 074°04'1 7.0
2018-Jul-12 23:31N 40°40' W 074°04'  
Track history (hours):
 
Tides and Currents Weather Stations Pressure Air Temp Water Temp Dewpoint Dewpoint Depression Visibility Wind Speed Wind Dir Waves Ship Positions

Thomas D. Witte

Owner: Donjon Marine Co., Inc., Hillside, NJ. More information available from US FCC via Universal Licensing System and Coast Guard Vessel Documentation Center.

Last reported at 2018-Jul-22 13:52 UTC. Time now 2018-Jul-22 14:05 UTC.
Position N 40°44' W 073°57'.

Length 19 m.

Type: Other ship. MMSI: 367304530.

Date/timePositionNaut miles runAvg speedWind from/ knotsBaromVisibWave heightAir tempDewpointWater temp
2018-Jul-22 13:52N 40°44' W 073°57'1 3.0
2018-Jul-22 13:25N 40°43' W 073°58'2 3.9
2018-Jul-22 13:00N 40°42' W 073°60'3 5.2
2018-Jul-22 12:30N 40°40' W 074°02'2 3.5
2018-Jul-22 12:00N 40°41' W 074°04'0 0.0
2018-Jul-22 11:30N 40°41' W 074°04'0 0.6
2018-Jul-22 11:00N 40°41' W 074°05'0 0.0
2018-Jul-22 10:30N 40°41' W 074°05'0 0.0
2018-Jul-22 10:00N 40°41' W 074°05'0 0.0
2018-Jul-22 09:30N 40°41' W 074°05'0 0.3
2018-Jul-22 09:00N 40°41' W 074°04'3 6.2
2018-Jul-22 08:30N 40°39' W 074°07'3 5.2
2018-Jul-22 08:00N 40°41' W 074°08'1 2.3
2018-Jul-22 07:30N 40°42' W 074°09'0 0.0
2018-Jul-22 06:53N 40°42' W 074°09'0 0.0
2018-Jul-22 06:30N 40°42' W 074°09'0 0.0
2018-Jul-22 05:53N 40°42' W 074°09'0 0.0
2018-Jul-22 05:27N 40°42' W 074°09'0 0.0
2018-Jul-21 21:55N 40°42' W 074°09'1 2.8
2018-Jul-21 21:30N 40°41' W 074°08'1 1.2
2018-Jul-21 20:59N 40°41' W 074°08'0 0.0
2018-Jul-21 20:30N 40°41' W 074°08'0 0.0
2018-Jul-21 20:00N 40°41' W 074°08'0 0.0
2018-Jul-21 19:30N 40°41' W 074°08'0 0.0
2018-Jul-21 18:59N 40°41' W 074°08'1 2.9
2018-Jul-21 18:29N 40°42' W 074°09'0 0.8
2018-Jul-21 17:57N 40°42' W 074°08'1 2.4
2018-Jul-21 17:30N 40°41' W 074°08'0 0.1
2018-Jul-21 17:00N 40°41' W 074°08'0 0.0
2018-Jul-21 16:30N 40°41' W 074°08'1 1.8
2018-Jul-21 15:58N 40°42' W 074°08'1 1.7
2018-Jul-21 15:22N 40°41' W 074°08'0 0.0
2018-Jul-21 14:59N 40°41' W 074°08'1 1.9
2018-Jul-21 14:30N 40°40' W 074°08'0 0.7
2018-Jul-21 14:00N 40°40' W 074°08'2 3.4
2018-Jul-21 13:28N 40°42' W 074°09'2 3.0
2018-Jul-21 12:58N 40°41' W 074°08'0 0.0
2018-Jul-21 12:30N 40°41' W 074°08'0 0.0
2018-Jul-21 12:00N 40°41' W 074°08'0 0.0
2018-Jul-21 11:30N 40°41' W 074°08'0 0.0
2018-Jul-21 11:00N 40°41' W 074°08'0 0.2
2018-Jul-21 10:30N 40°41' W 074°08'1 1.7
2018-Jul-21 09:59N 40°40' W 074°08'1 2.4
2018-Jul-21 09:30N 40°41' W 074°09'0 0.0
2018-Jul-21 09:00N 40°41' W 074°09'0 0.1
2018-Jul-21 08:30N 40°41' W 074°09'0 0.0
2018-Jul-21 08:00N 40°41' W 074°09'0 0.0
2018-Jul-21 07:30N 40°41' W 074°09'0 0.0
2018-Jul-21 06:59N 40°41' W 074°09'0 0.0
2018-Jul-21 06:30N 40°41' W 074°09'0 0.2
2018-Jul-21 06:00N 40°41' W 074°09'0 0.0
2018-Jul-21 05:30N 40°41' W 074°09'0 0.0
2018-Jul-21 05:00N 40°41' W 074°09'0 0.0
2018-Jul-21 04:30N 40°41' W 074°09'1 1.4
2018-Jul-21 04:00N 40°40' W 074°08'4 7.0
2018-Jul-21 03:30N 40°43' W 074°06'2 3.2
2018-Jul-21 03:00N 40°45' W 074°05'0 0.4
2018-Jul-21 02:29N 40°45' W 074°05'0 0.3
2018-Jul-21 02:00N 40°45' W 074°05'2 4.3
2018-Jul-21 01:30N 40°43' W 074°06'2 4.0
2018-Jul-21 01:00N 40°41' W 074°08'1 0.6
2018-Jul-20 23:37N 40°42' W 074°09'0 0.0
2018-Jul-20 23:30N 40°42' W 074°09'0 0.0
2018-Jul-20 22:59N 40°42' W 074°09'0 0.0
2018-Jul-20 22:25N 40°42' W 074°09'1 2.8
2018-Jul-20 22:00N 40°41' W 074°08'1 1.9
2018-Jul-20 21:29N 40°42' W 074°09'0 0.8
2018-Jul-20 20:59N 40°42' W 074°08'1 2.5
2018-Jul-20 20:30N 40°41' W 074°08'0 0.0
2018-Jul-20 19:59N 40°41' W 074°08'0 0.0
2018-Jul-20 19:30N 40°41' W 074°08'0 0.0
2018-Jul-20 19:00N 40°41' W 074°08'0 0.0
2018-Jul-20 18:30N 40°41' W 074°08'0 0.1
2018-Jul-20 17:59N 40°41' W 074°08'0 0.1
2018-Jul-20 17:30N 40°41' W 074°08'0 0.1
2018-Jul-20 17:00N 40°41' W 074°08'1 1.2
2018-Jul-20 16:22N 40°41' W 074°08'0 0.1
2018-Jul-20 16:00N 40°41' W 074°08'1 1.6
2018-Jul-20 15:29N 40°42' W 074°09'0 0.0
2018-Jul-20 14:58N 40°42' W 074°09'0 0.0
2018-Jul-20 14:29N 40°42' W 074°09'0 0.3
2018-Jul-20 14:00N 40°42' W 074°09'0 0.3
2018-Jul-20 13:30N 40°42' W 074°09'1 2.2
2018-Jul-20 13:00N 40°41' W 074°08'0 1.0
2018-Jul-20 12:30N 40°41' W 074°08'0 0.0
2018-Jul-20 12:00N 40°41' W 074°08'0 0.0
2018-Jul-20 11:29N 40°41' W 074°08'0 0.0
2018-Jul-20 11:00N 40°41' W 074°08'0 0.1
2018-Jul-20 10:30N 40°41' W 074°08'1 1.8
2018-Jul-20 10:01N 40°41' W 074°08'1 1.2
2018-Jul-20 09:30N 40°41' W 074°09'0 0.2
2018-Jul-20 09:01N 40°41' W 074°09'0 0.2
2018-Jul-20 08:31N 40°41' W 074°09'0 0.0
2018-Jul-20 08:00N 40°41' W 074°09'0 0.1
2018-Jul-20 07:30N 40°41' W 074°09'0 0.1
2018-Jul-20 07:00N 40°41' W 074°09'0 0.0
2018-Jul-20 06:30N 40°41' W 074°09'0 0.2
2018-Jul-20 06:00N 40°41' W 074°09'0 0.1
2018-Jul-20 05:30N 40°41' W 074°09'0 0.0
2018-Jul-20 05:00N 40°41' W 074°09'0 0.0
2018-Jul-20 04:30N 40°41' W 074°09'1 1.5
2018-Jul-20 04:01N 40°41' W 074°08'0 0.0
2018-Jul-20 03:30N 40°41' W 074°08'1 1.8
2018-Jul-20 03:00N 40°42' W 074°07'3 6.4
2018-Jul-20 02:30N 40°44' W 074°05'0 0.5
2018-Jul-20 01:56N 40°45' W 074°05'0 0.1
2018-Jul-20 01:30N 40°45' W 074°05'1 1.4
2018-Jul-20 00:59N 40°44' W 074°05'2 4.9
2018-Jul-20 00:30N 40°42' W 074°07'1 1.9
2018-Jul-19 23:46N 40°42' W 074°09'0 0.2
2018-Jul-19 22:11N 40°42' W 074°09'0 1.0
2018-Jul-19 22:00N 40°42' W 074°09'0 0.2
2018-Jul-19 21:29N 40°42' W 074°09'1 3.0
2018-Jul-19 21:00N 40°41' W 074°08'0 0.1
2018-Jul-19 20:30N 40°41' W 074°08'0 0.0
2018-Jul-19 20:00N 40°41' W 074°08'0 0.0
2018-Jul-19 19:30N 40°41' W 074°08'0 0.0
2018-Jul-19 19:00N 40°41' W 074°08'0 0.4
2018-Jul-19 18:30N 40°41' W 074°08'1 1.8
2018-Jul-19 17:50N 40°42' W 074°09'1 3.8
2018-Jul-19 17:30N 40°41' W 074°08'0 0.5
2018-Jul-19 17:00N 40°41' W 074°08'0 0.0
2018-Jul-19 16:29N 40°41' W 074°08'0 0.0
2018-Jul-19 16:00N 40°41' W 074°08'1 2.5
2018-Jul-19 15:25N 40°42' W 074°09'1 1.5
2018-Jul-19 14:59N 40°42' W 074°08'1 1.8
2018-Jul-19 14:30N 40°41' W 074°08'0 0.1
2018-Jul-19 13:30N 40°41' W 074°08'0 0.0
2018-Jul-19 13:00N 40°41' W 074°08'0 0.0
2018-Jul-19 12:30N 40°41' W 074°08'1 1.7
2018-Jul-19 12:00N 40°40' W 074°08'0 0.6
2018-Jul-19 11:30N 40°40' W 074°08'1 1.6
2018-Jul-19 11:00N 40°41' W 074°09'0 0.0
2018-Jul-19 10:30N 40°41' W 074°09'0 0.0
2018-Jul-19 10:00N 40°41' W 074°09'0 0.0
2018-Jul-19 09:30N 40°41' W 074°09'0 0.1
2018-Jul-19 09:00N 40°41' W 074°09'0 0.1
2018-Jul-19 08:30N 40°41' W 074°09'0 0.0
2018-Jul-19 08:00N 40°41' W 074°09'0 0.1
2018-Jul-19 07:30N 40°41' W 074°09'0 0.1
2018-Jul-19 07:00N 40°41' W 074°09'0 0.0
2018-Jul-19 06:30N 40°41' W 074°09'0 0.2
2018-Jul-19 06:00N 40°41' W 074°09'1 2.0
2018-Jul-19 05:30N 40°42' W 074°09'0 0.3
2018-Jul-19 05:00N 40°42' W 074°09'0 0.0
2018-Jul-19 04:30N 40°42' W 074°09'0 0.0
2018-Jul-19 04:00N 40°42' W 074°09'0 0.0
2018-Jul-19 03:30N 40°42' W 074°09'2 3.0
2018-Jul-19 03:00N 40°40' W 074°08'0 0.7
2018-Jul-19 02:30N 40°41' W 074°08'4 1.7
2018-Jul-19 00:13N 40°44' W 074°06'1 6.0
2018-Jul-19 00:00N 40°43' W 074°06'2 4.2
2018-Jul-18 23:30N 40°41' W 074°08'1 0.6
2018-Jul-18 22:10N 40°42' W 074°09'1 3.1
2018-Jul-18 21:59N 40°42' W 074°08'1 2.4
2018-Jul-18 21:30N 40°41' W 074°08'0 0.2
2018-Jul-18 21:00N 40°41' W 074°08'1 1.6
2018-Jul-18 20:30N 40°40' W 074°08'1 1.7
2018-Jul-18 20:00N 40°41' W 074°08'0 0.8
2018-Jul-18 19:30N 40°41' W 074°08'0 0.7
2018-Jul-18 18:58N 40°41' W 074°08'0 0.0
2018-Jul-18 18:30N 40°41' W 074°08'0 0.0
2018-Jul-18 18:00N 40°41' W 074°08'0 0.2
2018-Jul-18 17:30N 40°41' W 074°08'1 1.4
2018-Jul-18 17:00N 40°41' W 074°08'1 2.0
2018-Jul-18 16:26N 40°42' W 074°09'0 0.0
2018-Jul-18 16:00N 40°42' W 074°09'0 0.0
2018-Jul-18 15:30N 40°42' W 074°09'1 1.1
2018-Jul-18 14:49N 40°42' W 074°08'0 0.1
2018-Jul-18 14:27N 40°42' W 074°08'3 3.4
2018-Jul-18 13:30N 40°44' W 074°06'1 2.1
2018-Jul-18 13:00N 40°45' W 074°05'0 0.8
2018-Jul-18 12:30N 40°44' W 074°05'3 6.0
2018-Jul-18 12:00N 40°42' W 074°07'1 0.7
2018-Jul-18 10:30N 40°41' W 074°08'1 1.2
2018-Jul-18 10:00N 40°41' W 074°09'0 0.3
2018-Jul-18 09:29N 40°41' W 074°09'0 0.0
2018-Jul-18 09:00N 40°41' W 074°09'0 0.3
2018-Jul-18 08:31N 40°41' W 074°09'0 0.0
2018-Jul-18 08:00N 40°41' W 074°09'0 0.1
2018-Jul-18 07:30N 40°41' W 074°09'0 0.0
2018-Jul-18 07:00N 40°41' W 074°09'0 0.0
2018-Jul-18 06:29N 40°41' W 074°09'0 0.2
2018-Jul-18 06:00N 40°41' W 074°09'1 1.1
2018-Jul-18 04:51N 40°42' W 074°09'2 0.2
2018-Jul-17 19:29N 40°41' W 074°08'1 1.2
2018-Jul-17 18:59N 40°41' W 074°08'0 0.2
2018-Jul-17 18:30N 40°41' W 074°08'1 1.5
2018-Jul-17 17:49N 40°42' W 074°09'1 1.7
2018-Jul-17 17:20N 40°41' W 074°08'1 2.2
2018-Jul-17 16:59N 40°41' W 074°08'0 0.0
2018-Jul-17 15:51N 40°41' W 074°08'0 0.0
2018-Jul-17 15:16N 40°41' W 074°08'0 0.0
2018-Jul-17 14:51N 40°41' W 074°08'0 0.0
2018-Jul-17 14:26N 40°41' W 074°08'1 1.0
2018-Jul-17 13:54N 40°41' W 074°09'1 1.0
2018-Jul-17 13:21N 40°41' W 074°08'1 1.4
2018-Jul-17 12:53N 40°40' W 074°08'0 0.3
2018-Jul-17 12:12N 40°40' W 074°08'1 4.9
2018-Jul-17 12:00N 40°41' W 074°09'0 0.4
2018-Jul-17 11:27N 40°41' W 074°09'0 0.1
2018-Jul-17 10:50N 40°41' W 074°08'1 1.4
2018-Jul-17 10:27N 40°41' W 074°08'1 1.8
2018-Jul-17 10:00N 40°40' W 074°08'1 2.2
2018-Jul-17 09:30N 40°41' W 074°09'0 0.2
2018-Jul-17 09:00N 40°41' W 074°09'0 0.2
2018-Jul-17 08:30N 40°41' W 074°09'0 0.0
2018-Jul-17 08:00N 40°41' W 074°09'0 0.1
2018-Jul-17 07:30N 40°41' W 074°09'0 0.0
2018-Jul-17 07:00N 40°41' W 074°09'0 0.0
2018-Jul-17 06:30N 40°41' W 074°09'0 0.2
2018-Jul-17 05:58N 40°41' W 074°09'1 0.2
2018-Jul-17 02:32N 40°41' W 074°08'1 1.7
2018-Jul-17 02:14N 40°41' W 074°09'0 0.2
2018-Jul-17 02:00N 40°41' W 074°09'1 0.8
2018-Jul-17 01:07N 40°41' W 074°08'1 9.5
2018-Jul-17 00:59N 40°40' W 074°08'1 1.7
2018-Jul-17 00:30N 40°41' W 074°09'2 2.1
2018-Jul-16 23:30N 40°42' W 074°07'3 4.8
2018-Jul-16 22:56N 40°45' W 074°05'0 0.1
2018-Jul-16 22:01N 40°44' W 074°05'0 3.6
2018-Jul-16 22:00N 40°44' W 074°05'2 5.1
2018-Jul-16 21:30N 40°43' W 074°07'1 2.8
2018-Jul-16 20:59N 40°42' W 074°08'1 1.3
2018-Jul-16 20:29N 40°41' W 074°08'0 1.0
2018-Jul-16 20:00N 40°41' W 074°08'0 0.1
2018-Jul-16 19:30N 40°41' W 074°08'0 0.0
2018-Jul-16 19:00N 40°41' W 074°08'1 1.9
2018-Jul-16 18:30N 40°40' W 074°08'1 1.8
2018-Jul-16 17:58N 40°41' W 074°08'1 3.1
2018-Jul-16 17:30N 40°42' W 074°09'0 0.0
2018-Jul-16 17:00N 40°42' W 074°09'1 2.8
2018-Jul-16 16:30N 40°41' W 074°08'1 1.2
2018-Jul-16 16:00N 40°41' W 074°08'1 1.2
2018-Jul-16 15:29N 40°41' W 074°08'0 0.0
2018-Jul-16 14:56N 40°41' W 074°08'0 0.0
2018-Jul-16 14:30N 40°41' W 074°08'0 0.7
2018-Jul-16 14:00N 40°40' W 074°08'0 0.5
2018-Jul-16 13:30N 40°41' W 074°08'0 0.2
2018-Jul-16 13:00N 40°41' W 074°08'0 0.0
2018-Jul-16 12:29N 40°41' W 074°08'0 0.0
2018-Jul-16 12:00N 40°41' W 074°08'0 0.0
2018-Jul-16 11:30N 40°41' W 074°08'0 0.0
2018-Jul-16 10:59N 40°41' W 074°08'0 0.3
2018-Jul-16 10:31N 40°41' W 074°08'1 1.2
2018-Jul-16 09:57N 40°41' W 074°08'0 0.0
2018-Jul-16 09:29N 40°41' W 074°08'1 1.3
2018-Jul-16 08:45N 40°42' W 074°09'0 0.0
2018-Jul-16 03:07N 40°42' W 074°09'0 0.0
2018-Jul-16 02:45N 40°42' W 074°09'0 0.0
2018-Jul-16 02:26N 40°42' W 074°09'0 0.8
2018-Jul-16 02:00N 40°42' W 074°09'1 2.0
2018-Jul-16 01:20N 40°41' W 074°08'2 6.3
2018-Jul-16 00:59N 40°38' W 074°09'2 4.7
2018-Jul-16 00:30N 40°41' W 074°08'2 3.2
2018-Jul-16 00:00N 40°42' W 074°09'0 0.0
2018-Jul-15 23:30N 40°42' W 074°09'0 0.0
2018-Jul-15 23:00N 40°42' W 074°09'0 0.0
2018-Jul-15 22:30N 40°42' W 074°09'0 0.0
2018-Jul-15 22:00N 40°42' W 074°09'0 0.0
2018-Jul-15 21:25N 40°42' W 074°09'0 0.0
2018-Jul-15 20:32N 40°42' W 074°09'0 0.3
2018-Jul-15 20:30N 40°42' W 074°09'0 0.0
2018-Jul-15 19:57N 40°42' W 074°09'0 0.0
2018-Jul-15 19:09N 40°42' W 074°09'0 0.5
2018-Jul-15 19:00N 40°42' W 074°09'0 0.1
2018-Jul-15 18:30N 40°42' W 074°09'0 0.0
2018-Jul-15 18:00N 40°42' W 074°09'0 0.0
2018-Jul-15 17:30N 40°42' W 074°09'0 0.0
2018-Jul-15 16:29N 40°42' W 074°09'0 0.0
2018-Jul-15 15:55N 40°42' W 074°09'0 0.0
2018-Jul-15 15:27N 40°42' W 074°09'0 0.0
2018-Jul-15 14:58N 40°42' W 074°09'0 0.0
2018-Jul-15 14:30N 40°42' W 074°09'0 0.0
2018-Jul-15 14:00N 40°42' W 074°09'0 0.0
2018-Jul-15 13:30N 40°42' W 074°09'0 0.0
2018-Jul-15 12:49N 40°42' W 074°09'0 0.0
2018-Jul-15 12:30N 40°42' W 074°09'0 0.0
2018-Jul-15 12:00N 40°42' W 074°09'0 0.0
2018-Jul-15 11:29N 40°42' W 074°09'0 0.0
2018-Jul-15 11:00N 40°42' W 074°09'0 0.0
2018-Jul-15 10:27N 40°42' W 074°09'0 0.0
2018-Jul-15 10:00N 40°42' W 074°09'0 0.0
2018-Jul-15 09:29N 40°42' W 074°09'0 0.0
2018-Jul-15 09:00N 40°42' W 074°09'0 0.0
2018-Jul-15 08:30N 40°42' W 074°09'0 0.0
2018-Jul-15 08:00N 40°42' W 074°09'0 0.0
2018-Jul-15 07:30N 40°42' W 074°09'0 0.0
2018-Jul-15 07:00N 40°42' W 074°09'0 0.3
2018-Jul-15 06:30N 40°42' W 074°09'3 6.8
2018-Jul-15 06:00N 40°39' W 074°09'4 7.5
2018-Jul-15 05:30N 40°39' W 074°04'3 6.0
2018-Jul-15 05:00N 40°41' W 074°01'4 7.4
2018-Jul-15 04:30N 40°44' W 073°58'2 1.0
2018-Jul-15 02:41N 40°46' W 073°57'210.5
2018-Jul-15 02:31N 40°44' W 073°58'510.4
2018-Jul-15 02:00N 40°40' W 074°03'5 9.3
2018-Jul-15 01:30N 40°39' W 074°08'6 0.6
2018-Jul-14 14:02N 40°44' W 074°05'1 1.5
2018-Jul-14 13:31N 40°44' W 074°06'2 3.7
2018-Jul-14 13:01N 40°42' W 074°07'1 2.9
2018-Jul-14 12:30N 40°42' W 074°09'1 1.9
2018-Jul-14 12:00N 40°41' W 074°08'1 1.1
2018-Jul-14 11:31N 40°41' W 074°08'0 0.0
2018-Jul-14 11:00N 40°41' W 074°08'0 0.0
2018-Jul-14 10:30N 40°41' W 074°08'1 1.5
2018-Jul-14 09:59N 40°41' W 074°08'0 0.0
2018-Jul-14 09:31N 40°41' W 074°08'1 1.3
2018-Jul-14 09:00N 40°41' W 074°09'1 2.4
2018-Jul-14 08:29N 40°42' W 074°09'0 0.0
2018-Jul-14 07:58N 40°42' W 074°09'0 0.0
2018-Jul-14 07:30N 40°42' W 074°09'0 0.0
2018-Jul-14 07:00N 40°42' W 074°09'0 0.0
2018-Jul-14 06:30N 40°42' W 074°09'0 0.0
2018-Jul-14 06:00N 40°42' W 074°09'0 0.0
2018-Jul-14 05:30N 40°42' W 074°09'0 0.1
2018-Jul-14 05:00N 40°42' W 074°09'0 0.4
2018-Jul-14 04:29N 40°42' W 074°09'0 0.1
2018-Jul-14 02:47N 40°42' W 074°09'0 0.0
2018-Jul-14 02:11N 40°42' W 074°09'0 0.0
2018-Jul-14 01:57N 40°42' W 074°09'0 0.0
2018-Jul-14 01:27N 40°42' W 074°09'0 0.0
2018-Jul-14 01:00N 40°42' W 074°09'0 0.0
2018-Jul-14 00:29N 40°42' W 074°09'0 0.0
2018-Jul-13 23:42N 40°42' W 074°09'0 0.0
2018-Jul-13 23:30N 40°42' W 074°09'1 1.7
2018-Jul-13 23:00N 40°41' W 074°08'1 1.3
2018-Jul-13 22:30N 40°42' W 074°09'0 0.1
2018-Jul-13 21:54N 40°42' W 074°09'1 3.8
2018-Jul-13 21:30N 40°41' W 074°08'0 0.1
2018-Jul-13 21:00N 40°41' W 074°08'0 0.0
2018-Jul-13 20:31N 40°41' W 074°08'0 0.0
2018-Jul-13 20:00N 40°41' W 074°08'0 0.0
2018-Jul-13 19:30N 40°41' W 074°08'0 0.0
2018-Jul-13 19:00N 40°41' W 074°08'0 0.8
2018-Jul-13 18:30N 40°40' W 074°08'0 0.8
2018-Jul-13 18:00N 40°41' W 074°08'1 1.6
2018-Jul-13 17:30N 40°41' W 074°08'3 5.3
2018-Jul-13 16:58N 40°44' W 074°06'1 0.5
2018-Jul-13 14:05N 40°45' W 074°05'1 1.0
2018-Jul-13 13:05N 40°44' W 074°06'1 5.4
2018-Jul-13 12:59N 40°44' W 074°06'3 5.7
2018-Jul-13 12:29N 40°41' W 074°08'1 2.1
2018-Jul-13 11:59N 40°42' W 074°09'2 3.1
2018-Jul-13 11:30N 40°41' W 074°08'0 0.1
2018-Jul-13 11:01N 40°41' W 074°08'1 1.8
2018-Jul-13 10:30N 40°41' W 074°08'0 0.9
2018-Jul-13 09:59N 40°41' W 074°08'0 0.0
2018-Jul-13 09:30N 40°41' W 074°08'1 1.3
2018-Jul-13 09:01N 40°41' W 074°09'1 2.5
2018-Jul-13 08:30N 40°42' W 074°09'0 0.0
2018-Jul-13 07:59N 40°42' W 074°09'0 0.0
2018-Jul-13 07:30N 40°42' W 074°09'0 0.0
2018-Jul-13 07:00N 40°42' W 074°09'0 0.0
2018-Jul-13 06:30N 40°42' W 074°09'1 1.9
2018-Jul-13 06:00N 40°41' W 074°08'3 5.4
2018-Jul-13 05:30N 40°39' W 074°09'4 7.0
2018-Jul-13 05:00N 40°39' W 074°04'2 3.5
2018-Jul-13 04:31N 40°41' W 074°04'1 2.2
2018-Jul-13 04:00N 40°41' W 074°03'3 6.7
2018-Jul-13 03:30N 40°42' W 073°59'1 0.4
2018-Jul-13 00:53N 40°43' W 073°58'3 8.3
2018-Jul-13 00:31N 40°41' W 074°02'2 2.4
2018-Jul-12 23:42N 40°41' W 074°04'1 7.0
2018-Jul-12 23:31N 40°40' W 074°04'  

Dump ship's entire track history